createdAt,value
2017-08-12T00:02:34.882Z,77.94
2017-08-12T00:07:41.347Z,77.84
2017-08-12T00:12:43.628Z,77.91
2017-08-12T00:17:45.996Z,77.94
2017-08-12T00:22:49.430Z,77.84
2017-08-12T00:27:56.582Z,77.78
2017-08-12T00:33:02.903Z,77.92
2017-08-12T00:38:08.322Z,78.03
2017-08-12T00:43:12.926Z,77.93
2017-08-12T00:48:17.624Z,77.81
2017-08-12T00:53:20.597Z,77.65
2017-08-12T00:58:23.610Z,77.79
2017-08-12T01:03:26.092Z,77.65
2017-08-12T01:08:28.831Z,77.58
2017-08-12T01:13:32.188Z,77.86
2017-08-12T01:18:34.437Z,77.88
2017-08-12T01:23:36.855Z,77.79
2017-08-12T01:28:38.990Z,77.88
2017-08-12T01:33:40.910Z,77.82
2017-08-12T01:38:43.532Z,77.72
2017-08-12T01:43:45.727Z,77.89
2017-08-12T01:48:49.030Z,77.81
2017-08-12T01:53:51.926Z,77.87
2017-08-12T01:58:53.863Z,77.78
2017-08-12T02:03:55.823Z,77.56
2017-08-12T02:08:57.845Z,77.56
2017-08-12T02:13:59.803Z,77.33
2017-08-12T02:19:01.727Z,77.41
2017-08-12T02:24:03.719Z,77.43
2017-08-12T02:29:05.639Z,77.45
2017-08-12T02:34:07.581Z,77.45
2017-08-12T02:39:09.528Z,77.59
2017-08-12T02:44:11.472Z,77.78
2017-08-12T02:49:13.458Z,77.78
2017-08-12T02:54:15.382Z,77.78
2017-08-12T02:59:17.379Z,77.95
2017-08-12T03:04:19.814Z,78.06
2017-08-12T03:09:22.534Z,78.02
2017-08-12T03:14:24.629Z,78.18
2017-08-12T03:19:27.073Z,78.11
2017-08-12T03:24:29.070Z,78.19
2017-08-12T03:29:31.751Z,78.48
2017-08-12T03:34:33.691Z,78.33
2017-08-12T03:39:36.418Z,78.54
2017-08-12T03:44:38.330Z,78.57
2017-08-12T03:49:40.297Z,78.47
2017-08-12T03:54:42.218Z,78.36
2017-08-12T03:59:44.466Z,78.44
2017-08-12T04:04:46.446Z,78.26
2017-08-12T04:09:48.439Z,78.47
2017-08-12T04:14:50.443Z,78.24
2017-08-12T04:19:52.775Z,78.18
2017-08-12T04:24:54.755Z,78.21
2017-08-12T04:29:56.755Z,78.40
2017-08-12T04:34:58.700Z,78.27
2017-08-12T04:40:03.266Z,78.26
2017-08-12T04:45:05.331Z,78.19
2017-08-12T04:50:08.128Z,78.07
2017-08-12T04:55:10.682Z,78.09
2017-08-12T05:00:13.931Z,78.12
2017-08-12T05:05:16.666Z,77.91
2017-08-12T05:10:18.671Z,78.20
2017-08-12T05:15:21.353Z,78.04
2017-08-12T05:20:23.557Z,78.08
2017-08-12T05:25:25.892Z,78.06
2017-08-12T05:30:29.083Z,78.08
2017-08-12T05:35:31.976Z,77.97
2017-08-12T05:40:36.404Z,78.33
2017-08-12T05:45:38.425Z,77.93
2017-08-12T05:50:40.384Z,77.68
2017-08-12T05:55:43.142Z,77.74
2017-08-12T06:00:46.520Z,77.66
2017-08-12T06:05:49.092Z,77.66
2017-08-12T06:10:51.091Z,77.59
2017-08-12T06:15:53.052Z,77.43
2017-08-12T06:20:54.995Z,77.55
2017-08-12T06:25:56.950Z,77.42
2017-08-12T06:30:58.920Z,77.56
2017-08-12T06:36:00.876Z,77.58
2017-08-12T06:41:03.616Z,77.61
2017-08-12T06:46:05.568Z,77.75
2017-08-12T06:51:07.518Z,77.69
2017-08-12T06:56:09.470Z,77.74
2017-08-12T07:01:12.209Z,77.56
2017-08-12T07:06:14.534Z,77.22
2017-08-12T07:11:17.052Z,76.94
2017-08-12T07:16:19.784Z,76.41
2017-08-12T07:21:21.955Z,76.22
2017-08-12T07:26:23.918Z,75.76
2017-08-12T07:31:25.993Z,75.59
2017-08-12T07:36:28.054Z,74.94
2017-08-12T07:41:30.009Z,74.61
2017-08-12T07:46:32.028Z,74.20
2017-08-12T07:51:35.005Z,73.78
2017-08-12T07:56:37.087Z,73.59
2017-08-12T08:01:39.834Z,73.19
2017-08-12T08:06:41.889Z,73.15
2017-08-12T08:11:43.981Z,73.07
2017-08-12T08:16:46.706Z,73.09
2017-08-12T08:21:48.673Z,73.07
2017-08-12T08:26:51.567Z,73.45
2017-08-12T08:31:53.739Z,73.47
2017-08-12T08:36:55.716Z,73.58
2017-08-12T08:41:57.675Z,73.21
2017-08-12T08:46:59.643Z,73.22
2017-08-12T08:52:01.581Z,73.29
2017-08-12T08:57:03.878Z,73.56
2017-08-12T09:02:06.007Z,73.90
2017-08-12T09:07:07.951Z,74.25
2017-08-12T09:12:09.927Z,74.17
2017-08-12T09:17:12.623Z,74.24
2017-08-12T09:22:14.597Z,74.28
2017-08-12T09:27:16.614Z,74.23
2017-08-12T09:32:19.264Z,74.13
2017-08-12T09:37:21.939Z,74.16
2017-08-12T09:42:23.934Z,74.21
2017-08-12T09:47:25.875Z,74.12
2017-08-12T09:52:27.910Z,74.26
2017-08-12T09:57:29.938Z,73.88
2017-08-12T10:02:31.886Z,74.06
2017-08-12T10:07:33.845Z,73.96
2017-08-12T10:12:35.887Z,74.46
2017-08-12T10:17:37.874Z,74.47
2017-08-12T10:22:39.859Z,74.67
2017-08-12T10:27:41.892Z,74.82
2017-08-12T10:32:43.849Z,74.68
2017-08-12T10:37:46.567Z,74.41
2017-08-12T10:42:48.552Z,74.29
2017-08-12T10:47:50.561Z,74.10
2017-08-12T10:52:52.618Z,73.84
2017-08-12T10:57:54.620Z,74.05
2017-08-12T11:02:56.611Z,74.08
2017-08-12T11:07:59.244Z,74.20
2017-08-12T11:13:01.251Z,74.10
2017-08-12T11:18:03.261Z,74.42
2017-08-12T11:23:05.185Z,74.85
2017-08-12T11:28:07.201Z,75.07
2017-08-12T11:33:09.133Z,75.16
2017-08-12T11:38:11.091Z,74.64
2017-08-12T11:43:13.826Z,74.53
2017-08-12T11:48:15.801Z,74.72
2017-08-12T11:53:17.765Z,74.60
2017-08-12T11:58:20.476Z,74.69
2017-08-12T12:03:22.439Z,74.75
2017-08-12T12:08:24.376Z,74.25
2017-08-12T12:13:26.387Z,74.65
2017-08-12T12:18:29.042Z,74.69
2017-08-12T12:23:31.142Z,74.64
2017-08-12T12:28:33.152Z,75.02
2017-08-12T12:33:35.813Z,74.76
2017-08-12T12:38:37.780Z,74.36
2017-08-12T12:43:39.761Z,74.91
2017-08-12T12:48:41.766Z,74.73
2017-08-12T12:53:43.727Z,74.92
2017-08-12T12:58:45.713Z,74.64
2017-08-12T13:03:47.713Z,74.97
2017-08-12T13:08:49.681Z,74.93
2017-08-12T13:13:51.706Z,74.68
2017-08-12T13:18:54.070Z,74.69
2017-08-12T13:23:56.026Z,74.56
2017-08-12T13:28:57.998Z,73.70
2017-08-12T13:33:59.987Z,73.15
2017-08-12T13:39:02.859Z,72.27
2017-08-12T13:44:12.499Z,72.20
2017-08-12T13:49:14.514Z,72.70
2017-08-12T13:54:16.587Z,72.74
2017-08-12T13:59:18.627Z,72.44
2017-08-12T14:04:21.385Z,72.41
2017-08-12T14:09:23.306Z,72.48
2017-08-12T14:14:25.325Z,72.50
2017-08-12T14:19:27.266Z,72.91
2017-08-12T14:24:29.283Z,72.03
2017-08-12T14:29:31.980Z,71.75
2017-08-12T14:34:33.926Z,72.36
2017-08-12T14:39:35.969Z,72.47
2017-08-12T14:44:37.930Z,72.44
2017-08-12T14:49:39.920Z,71.53
2017-08-12T14:54:41.845Z,70.42
2017-08-12T14:59:44.882Z,69.89
2017-08-12T15:04:46.937Z,69.93
2017-08-12T15:09:48.986Z,69.65
2017-08-12T15:14:51.023Z,69.61
2017-08-12T15:19:53.011Z,70.28
2017-08-12T15:24:54.956Z,70.00
2017-08-12T15:34:59.073Z,69.17
2017-08-12T15:40:01.081Z,69.33
2017-08-12T15:45:03.219Z,69.23
2017-08-12T15:50:05.146Z,68.92
2017-08-12T15:55:07.151Z,68.79
2017-08-12T16:00:09.115Z,68.70
2017-08-12T16:05:11.120Z,68.58
2017-08-12T16:10:13.128Z,68.81
2017-08-12T16:15:15.176Z,68.97
2017-08-12T16:20:17.943Z,68.95
2017-08-12T16:25:20.005Z,68.52
2017-08-12T16:30:22.719Z,67.34
2017-08-12T16:35:24.680Z,68.21
2017-08-12T16:40:26.687Z,68.57
2017-08-12T16:45:28.684Z,68.51
2017-08-12T16:50:30.636Z,68.35
2017-08-12T16:55:32.587Z,68.35
2017-08-12T17:00:34.592Z,67.79
2017-08-12T17:05:36.569Z,68.37
2017-08-12T17:10:38.569Z,69.57
2017-08-12T17:15:40.539Z,70.04
2017-08-12T17:20:43.596Z,70.25
2017-08-12T17:25:47.888Z,70.90
2017-08-12T17:30:50.003Z,71.74
2017-08-12T17:35:52.003Z,71.83
2017-08-12T17:40:53.924Z,71.95
2017-08-12T17:45:55.922Z,72.06
2017-08-12T17:50:58.660Z,72.47
2017-08-12T17:56:00.604Z,72.43
2017-08-12T18:01:02.628Z,72.60
2017-08-12T18:06:05.495Z,72.55
2017-08-12T18:11:07.594Z,72.64
2017-08-12T18:16:09.520Z,72.72
2017-08-12T18:21:11.465Z,72.37
2017-08-12T18:26:13.589Z,72.58
2017-08-12T18:31:15.718Z,73.14
2017-08-12T18:36:17.785Z,73.58
2017-08-12T18:41:22.340Z,73.72
2017-08-12T18:46:26.527Z,73.37
2017-08-12T18:51:28.479Z,73.32
2017-08-12T18:56:30.411Z,73.78
2017-08-12T19:01:32.919Z,74.21
2017-08-12T19:06:35.801Z,73.90
2017-08-12T19:11:38.828Z,73.81
2017-08-12T19:16:43.454Z,74.44
2017-08-12T19:21:48.044Z,74.41
2017-08-12T19:26:50.128Z,74.47
2017-08-12T19:31:52.109Z,74.47
2017-08-12T19:36:54.337Z,74.39
2017-08-12T19:41:57.025Z,74.59
2017-08-12T19:46:58.990Z,74.29
2017-08-12T19:52:01.028Z,74.14
2017-08-12T19:57:02.987Z,74.67
2017-08-12T20:02:05.015Z,74.97
2017-08-12T20:07:06.955Z,75.59
2017-08-12T20:12:09.001Z,75.80
2017-08-12T20:17:11.233Z,76.11
2017-08-12T20:22:13.310Z,76.64
2017-08-12T20:27:15.342Z,76.68
2017-08-12T20:32:17.616Z,76.71
2017-08-12T20:37:19.752Z,77.10
2017-08-12T20:42:21.721Z,77.26
2017-08-12T20:47:23.808Z,77.17
2017-08-12T20:52:25.768Z,76.82
2017-08-12T20:57:27.794Z,76.74
2017-08-12T21:02:29.771Z,76.54
2017-08-12T21:07:32.519Z,76.35
2017-08-12T21:12:34.584Z,76.31
2017-08-12T21:17:36.556Z,76.40
2017-08-12T21:22:39.503Z,76.47
2017-08-12T21:27:41.468Z,76.85
2017-08-12T21:32:44.156Z,76.88
2017-08-12T21:37:46.346Z,76.75
2017-08-12T21:42:49.095Z,76.87
2017-08-12T21:47:51.100Z,77.07
2017-08-12T21:52:53.198Z,77.59
2017-08-12T21:57:55.187Z,77.69
2017-08-12T22:02:58.259Z,77.61
2017-08-12T22:08:00.579Z,77.57
2017-08-12T22:13:03.007Z,77.44
2017-08-12T22:18:04.980Z,77.40
2017-08-12T22:23:06.899Z,77.54
2017-08-12T22:28:08.861Z,77.81
2017-08-12T22:33:11.352Z,78.15
2017-08-12T22:38:13.307Z,77.78
2017-08-12T22:43:15.278Z,77.58
2017-08-12T22:48:17.567Z,77.19
2017-08-12T22:53:19.789Z,76.95
2017-08-12T22:58:22.106Z,76.88
2017-08-12T23:03:24.102Z,76.65
2017-08-12T23:08:26.825Z,76.55
2017-08-12T23:13:28.821Z,76.46
2017-08-12T23:18:30.806Z,76.50
2017-08-12T23:23:32.844Z,76.61
2017-08-12T23:28:34.922Z,76.54
2017-08-12T23:33:36.858Z,76.31
2017-08-12T23:38:38.800Z,76.26
2017-08-12T23:43:40.747Z,75.73
2017-08-12T23:48:42.703Z,75.46
2017-08-12T23:53:44.648Z,74.95
2017-08-12T23:58:46.610Z,74.54
